Time;durP1;ratioP1;P1;durP2;ratioP2;P2;SDS_P1;SDS_P2;PMS_P1;PMS_P2;Temp;Humidity;BMP_temperature;BMP_pressure;BME280_temperature;BME280_humidity;BME280_pressure;Samples;Min_cycle;Max_cycle;Signal;HPM_P1;HPM_P2
2022/05/02 00:00:45;;;;;;;8.90;5.40;;;6.80;99.90;;;;;;5049739;28;20151;-60
2022/05/02 00:03:11;;;;;;;5.80;4.75;;;6.80;99.90;;;;;;5046768;28;20406;-60
2022/05/02 00:05:38;;;;;;;5.75;4.43;;;6.80;99.90;;;;;;5046992;28;20044;-60
2022/05/02 00:08:05;;;;;;;6.50;4.88;;;6.70;99.90;;;;;;5046691;28;20357;-60
2022/05/02 00:10:31;;;;;;;6.40;5.45;;;6.70;99.90;;;;;;5048307;28;20045;-61
2022/05/02 00:12:57;;;;;;;5.53;5.03;;;6.70;99.90;;;;;;5057611;28;20130;-60
2022/05/02 00:15:23;;;;;;;10.10;5.70;;;6.60;99.90;;;;;;5062081;28;20040;-60
2022/05/02 00:17:59;;;;;;;6.88;4.85;;;6.60;99.90;;;;;;5066315;28;20041;-60
2022/05/02 00:20:29;;;;;;;7.65;5.35;;;6.60;99.90;;;;;;5065217;28;20044;-60
2022/05/02 00:22:57;;;;;;;8.38;5.00;;;6.60;99.90;;;;;;5054731;28;20060;-60
2022/05/02 00:25:23;;;;;;;7.15;5.55;;;6.50;99.90;;;;;;5046572;28;20487;-60
2022/05/02 00:27:49;;;;;;;6.32;5.20;;;6.50;99.90;;;;;;5045764;28;20047;-60
2022/05/02 00:30:18;;;;;;;6.70;5.50;;;6.50;99.90;;;;;;5046315;28;20041;-59
2022/05/02 00:32:44;;;;;;;7.68;5.10;;;6.50;99.90;;;;;;5046378;28;20049;-60
2022/05/02 00:35:10;;;;;;;6.35;5.25;;;6.50;99.90;;;;;;5045318;28;20047;-60
2022/05/02 00:37:38;;;;;;;8.68;5.80;;;6.40;99.90;;;;;;5046528;28;20056;-60
2022/05/02 00:40:05;;;;;;;6.53;5.35;;;6.40;99.90;;;;;;5045919;28;20494;-60
2022/05/02 00:42:31;;;;;;;6.05;5.50;;;6.40;99.90;;;;;;5045554;28;20049;-59
2022/05/02 00:44:57;;;;;;;8.57;5.80;;;6.30;99.90;;;;;;5046188;28;20709;-60
2022/05/02 00:47:23;;;;;;;7.93;5.68;;;6.30;99.90;;;;;;5046611;28;20040;-60
2022/05/02 00:49:49;;;;;;;6.70;6.10;;;6.30;99.90;;;;;;5045135;28;20048;-59
2022/05/02 00:52:16;;;;;;;8.02;6.40;;;6.30;99.90;;;;;;5045854;28;20063;-60
2022/05/02 00:54:43;;;;;;;11.75;6.80;;;6.20;99.90;;;;;;5045848;28;20044;-60
2022/05/02 00:57:12;;;;;;;8.13;6.63;;;6.20;99.90;;;;;;5044894;28;20056;-58
2022/05/02 00:59:38;;;;;;;8.73;6.25;;;6.20;99.90;;;;;;5046118;28;20049;-60
2022/05/02 01:02:05;;;;;;;6.78;6.13;;;6.20;99.90;;;;;;5044907;28;20119;-60
2022/05/02 01:04:31;;;;;;;6.78;5.78;;;6.20;99.90;;;;;;5045790;28;20052;-60
2022/05/02 01:07:11;;;;;;;7.80;6.65;;;6.20;99.90;;;;;;5046200;28;20502;-60
2022/05/02 01:09:42;;;;;;;8.13;6.65;;;6.20;99.90;;;;;;5045235;28;20073;-59
2022/05/02 01:12:16;;;;;;;7.53;6.18;;;6.10;99.90;;;;;;5045524;28;20056;-60
2022/05/02 01:14:44;;;;;;;7.93;7.13;;;6.10;99.90;;;;;;5045569;28;20093;-60
2022/05/02 01:17:10;;;;;;;8.93;7.55;;;6.10;99.90;;;;;;5045041;28;20041;-60
2022/05/02 01:19:36;;;;;;;9.60;6.93;;;6.00;99.90;;;;;;5045969;28;20320;-60
2022/05/02 01:22:03;;;;;;;8.82;7.28;;;6.00;99.90;;;;;;5045311;28;20041;-60
2022/05/02 01:24:33;;;;;;;10.07;7.10;;;6.00;99.90;;;;;;5044927;28;20045;-60
2022/05/02 01:26:59;;;;;;;8.63;6.47;;;6.00;99.90;;;;;;5045360;28;20053;-60
2022/05/02 01:29:24;;;;;;;7.07;5.82;;;6.00;99.90;;;;;;5045972;28;20398;-60
2022/05/02 01:31:52;;;;;;;7.90;7.10;;;6.00;99.90;;;;;;5044720;28;20041;-59
2022/05/02 01:34:17;;;;;;;9.13;7.22;;;6.00;99.90;;;;;;5045212;28;20072;-60
2022/05/02 01:36:44;;;;;;;9.32;6.80;;;5.90;99.90;;;;;;5045307;28;20048;-60
2022/05/02 01:39:10;;;;;;;9.60;5.93;;;5.90;99.90;;;;;;5044736;28;20403;-60
2022/05/02 01:41:35;;;;;;;7.43;6.72;;;5.80;99.90;;;;;;5045850;28;20041;-60
2022/05/02 01:44:01;;;;;;;8.25;6.97;;;5.80;99.90;;;;;;5045003;28;20045;-60
2022/05/02 01:46:26;;;;;;;8.27;7.13;;;5.80;99.90;;;;;;5045086;28;20048;-59
2022/05/02 01:48:52;;;;;;;10.20;6.97;;;5.70;99.90;;;;;;5048756;28;20052;-59
2022/05/02 01:51:18;;;;;;;12.77;7.40;;;5.70;99.90;;;;;;5048142;28;20041;-60
2022/05/02 01:53:43;;;;;;;8.38;6.78;;;6.20;99.90;;;;;;5049031;28;20110;-60
2022/05/02 01:56:09;;;;;;;8.20;7.40;;;5.70;99.90;;;;;;5049477;28;20081;-60
2022/05/02 01:58:34;;;;;;;10.65;7.13;;;5.70;99.90;;;;;;5048705;28;20083;-59
2022/05/02 02:01:00;;;;;;;8.35;7.45;;;5.60;99.90;;;;;;5048937;28;20261;-58
2022/05/02 02:03:25;;;;;;;10.35;7.40;;;5.60;99.90;;;;;;5049534;28;20053;-60
2022/05/02 02:05:51;;;;;;;10.13;7.43;;;6.60;99.90;;;;;;5048126;28;20048;-60
2022/05/02 02:08:26;;;;;;;8.90;7.00;;;5.50;99.90;;;;;;5048738;28;20731;-60
2022/05/02 02:10:55;;;;;;;9.40;7.03;;;5.40;99.90;;;;;;5049270;28;20057;-60
2022/05/02 02:13:21;;;;;;;7.80;6.85;;;5.50;99.90;;;;;;5046564;28;20041;-60
2022/05/02 02:15:46;;;;;;;8.27;7.40;;;5.40;99.90;;;;;;5049046;28;20102;-60
2022/05/02 02:18:13;;;;;;;8.15;7.35;;;5.40;99.90;;;;;;5047170;28;20077;-59
2022/05/02 02:20:42;;;;;;;8.70;7.75;;;5.40;99.90;;;;;;5047068;28;20037;-60
2022/05/02 02:23:08;;;;;;;9.02;7.25;;;6.50;99.90;;;;;;5047517;28;20382;-58
2022/05/02 02:25:36;;;;;;;8.25;6.88;;;5.30;99.90;;;;;;5048745;28;20441;-60
2022/05/02 02:28:02;;;;;;;10.20;8.15;;;5.30;99.90;;;;;;5047466;28;20045;-60
2022/05/02 02:30:29;;;;;;;8.75;7.78;;;5.30;99.90;;;;;;5049018;28;20045;-59
2022/05/02 02:32:55;;;;;;;10.55;7.95;;;5.30;99.90;;;;;;5049259;28;20067;-60
2022/05/02 02:35:21;;;;;;;10.25;8.02;;;5.30;99.90;;;;;;5047351;28;20757;-58
2022/05/02 02:37:48;;;;;;;8.45;7.38;;;5.30;99.90;;;;;;5048742;28;20087;-60
2022/05/02 02:40:13;;;;;;;10.85;8.82;;;5.20;99.90;;;;;;5048239;28;20059;-60
2022/05/02 02:42:39;;;;;;;9.73;7.78;;;5.30;99.90;;;;;;5048234;28;20518;-60
2022/05/02 02:45:06;;;;;;;8.43;7.22;;;5.20;99.90;;;;;;5048352;28;20048;-60
2022/05/02 02:47:32;;;;;;;13.10;9.15;;;5.20;99.90;;;;;;5047758;28;20084;-60
2022/05/02 02:49:58;;;;;;;9.48;7.57;;;5.20;99.90;;;;;;5048197;28;20085;-60
2022/05/02 02:52:23;;;;;;;9.45;7.50;;;5.10;99.90;;;;;;5048878;28;20041;-59
2022/05/02 02:54:49;;;;;;;10.77;8.63;;;5.10;99.90;;;;;;5047830;28;20044;-60
2022/05/02 02:57:14;;;;;;;14.75;8.18;;;5.10;99.90;;;;;;5047878;28;20501;-60
2022/05/02 02:59:40;;;;;;;8.85;7.95;;;5.10;99.90;;;;;;5048271;28;20037;-60
2022/05/02 03:02:07;;;;;;;8.77;7.22;;;5.10;99.90;;;;;;5047241;28;20453;-60
2022/05/02 03:07:18;;;;;;;10.57;7.75;;;5.00;99.90;;;;;;5047567;28;20048;-60
2022/05/02 03:09:43;;;;;;;7.72;6.88;;;5.00;99.90;;;;;;5047505;28;20056;-60
2022/05/02 03:12:09;;;;;;;9.10;7.15;;;5.00;99.90;;;;;;5048008;28;20087;-60
2022/05/02 03:14:35;;;;;;;9.05;8.02;;;5.00;99.90;;;;;;5047978;28;20403;-60
2022/05/02 03:17:01;;;;;;;10.48;8.73;;;5.00;99.90;;;;;;5047308;28;20062;-60
2022/05/02 03:19:26;;;;;;;10.25;8.15;;;5.00;99.90;;;;;;5047987;28;20483;-60
2022/05/02 03:21:52;;;;;;;10.73;8.55;;;4.90;99.90;;;;;;5047951;28;20127;-61
2022/05/02 03:24:18;;;;;;;8.65;7.80;;;4.90;99.90;;;;;;5046719;28;20064;-60
2022/05/02 03:26:43;;;;;;;10.40;7.80;;;4.90;99.90;;;;;;5047508;28;20060;-60
2022/05/02 03:29:09;;;;;;;12.63;8.63;;;4.90;99.90;;;;;;5047755;28;20428;-59
2022/05/02 03:31:34;;;;;;;11.40;7.80;;;4.90;99.90;;;;;;5046828;28;20110;-60
2022/05/02 03:34:00;;;;;;;12.95;8.35;;;4.90;99.90;;;;;;5047032;28;20121;-61
2022/05/02 03:36:26;;;;;;;10.02;8.10;;;4.80;99.90;;;;;;5048022;28;20509;-60
2022/05/02 03:38:51;;;;;;;12.25;9.80;;;4.80;99.90;;;;;;5046947;28;20435;-60
2022/05/02 03:41:17;;;;;;;10.43;8.15;;;4.80;99.90;;;;;;5047159;28;20443;-60
2022/05/02 03:43:43;;;;;;;10.50;8.23;;;4.80;99.90;;;;;;5046853;28;20045;-60
2022/05/02 03:46:09;;;;;;;9.93;8.73;;;4.70;99.90;;;;;;5047186;28;20045;-60
2022/05/02 03:48:34;;;;;;;10.43;9.05;;;4.70;99.90;;;;;;5046990;28;20503;-60
2022/05/02 03:51:00;;;;;;;15.98;9.43;;;4.70;99.90;;;;;;5046266;28;20052;-60
2022/05/02 03:53:26;;;;;;;10.50;8.63;;;4.70;99.90;;;;;;5047449;28;20049;-60
2022/05/02 03:55:51;;;;;;;10.38;9.00;;;4.70;99.90;;;;;;5047153;28;20242;-60
2022/05/02 03:58:17;;;;;;;18.80;8.82;;;4.60;99.90;;;;;;5046302;28;20049;-59
2022/05/02 04:00:43;;;;;;;12.45;8.15;;;4.60;99.90;;;;;;5046554;28;20426;-60
2022/05/02 04:03:08;;;;;;;10.65;8.40;;;4.60;99.90;;;;;;5050804;28;20059;-60
2022/05/02 04:05:34;;;;;;;10.60;8.80;;;4.60;99.90;;;;;;5060071;28;20036;-60
2022/05/02 04:07:59;;;;;;;10.15;8.50;;;4.60;99.90;;;;;;5056108;28;20401;-61
2022/05/02 04:10:25;;;;;;;11.18;8.57;;;4.60;99.90;;;;;;5053813;28;20048;-59
2022/05/02 04:12:50;;;;;;;9.60;7.30;;;4.60;99.90;;;;;;5065939;28;20561;-60
2022/05/02 04:15:17;;;;;;;7.93;6.85;;;4.60;99.90;;;;;;5066266;28;20044;-60
2022/05/02 04:17:43;;;;;;;9.15;6.78;;;4.60;99.90;;;;;;5066497;28;20059;-60
2022/05/02 04:20:09;;;;;;;8.65;7.63;;;4.60;99.90;;;;;;5065920;28;20410;-60
2022/05/02 04:22:36;;;;;;;7.35;6.40;;;4.60;99.90;;;;;;5067134;28;20135;-60
2022/05/02 04:25:03;;;;;;;8.43;7.32;;;4.60;99.90;;;;;;5066106;28;20040;-60
2022/05/02 04:27:28;;;;;;;6.75;6.13;;;4.60;99.90;;;;;;5066114;28;20062;-60
2022/05/02 04:29:54;;;;;;;6.82;5.93;;;4.60;99.90;;;;;;5066719;28;20131;-60
2022/05/02 04:32:19;;;;;;;7.68;6.65;;;4.60;99.90;;;;;;5066052;28;20044;-60
2022/05/02 04:34:45;;;;;;;8.00;5.88;;;4.60;99.90;;;;;;5060477;28;20040;-60
2022/05/02 04:37:10;;;;;;;7.72;6.75;;;4.60;99.90;;;;;;5054680;28;20049;-61
2022/05/02 04:39:36;;;;;;;7.57;6.35;;;4.60;99.90;;;;;;5057131;28;20036;-60
2022/05/02 04:42:02;;;;;;;7.18;5.88;;;4.70;99.90;;;;;;5054565;28;20044;-60
2022/05/02 04:44:29;;;;;;;7.28;6.55;;;4.70;99.90;;;;;;5054819;28;20032;-60
2022/05/02 04:46:54;;;;;;;8.10;5.93;;;4.70;99.90;;;;;;5059447;28;20143;-60
2022/05/02 04:49:20;;;;;;;6.18;5.57;;;4.70;99.90;;;;;;5061685;28;20491;-60
2022/05/02 04:51:45;;;;;;;6.00;5.40;;;4.70;99.90;;;;;;5056299;28;20060;-60
2022/05/02 04:54:12;;;;;;;8.50;5.93;;;4.80;99.90;;;;;;5056354;28;20044;-60
2022/05/02 04:56:37;;;;;;;6.93;6.20;;;4.80;99.90;;;;;;5056787;28;20045;-60
2022/05/02 04:59:03;;;;;;;8.38;6.75;;;4.80;99.90;;;;;;5055334;28;20514;-61
2022/05/02 05:01:28;;;;;;;8.05;6.50;;;4.90;99.90;;;;;;5055806;28;20059;-60
2022/05/02 05:03:54;;;;;;;7.03;6.32;;;4.90;99.90;;;;;;5056567;28;20033;-60
2022/05/02 05:06:20;;;;;;;10.63;6.50;;;5.00;99.90;;;;;;5054894;28;20048;-60
2022/05/02 05:08:45;;;;;;;8.23;6.93;;;5.00;99.90;;;;;;5055886;28;20403;-60
2022/05/02 05:11:23;;;;;;;9.32;7.22;;;5.10;99.90;;;;;;5058533;28;20437;-60
2022/05/02 05:17:05;;;;;;;9.82;6.95;;;5.20;99.90;;;;;;5054466;28;20048;-59
2022/05/02 05:20:01;;;;;;;7.95;7.15;;;5.30;99.90;;;;;;5054067;28;20091;-60
2022/05/02 05:22:35;;;;;;;9.90;7.15;;;5.30;99.90;;;;;;5058220;28;20080;-60
2022/05/02 05:25:22;;;;;;;7.78;7.00;;;5.40;99.90;;;;;;5052907;28;20080;-60
2022/05/02 05:27:53;;;;;;;8.85;7.95;;;5.50;99.90;;;;;;5054653;28;20062;-58
2022/05/02 05:30:21;;;;;;;9.07;7.32;;;5.50;99.90;;;;;;5057834;28;20040;-60
2022/05/02 05:32:55;;;;;;;10.48;7.32;;;5.60;99.90;;;;;;5054475;28;20040;-60
2022/05/02 05:35:33;;;;;;;9.30;6.75;;;5.80;99.90;;;;;;5055447;28;20041;-60
2022/05/02 05:38:02;;;;;;;9.93;7.85;;;5.80;99.90;;;;;;5053552;28;20056;-61
2022/05/02 05:40:38;;;;;;;8.05;7.25;;;5.90;99.90;;;;;;5059343;28;20041;-60
2022/05/02 05:43:28;;;;;;;9.95;8.68;;;6.10;99.90;;;;;;5056176;28;20049;-61
2022/05/02 05:46:23;;;;;;;11.57;8.02;;;6.20;99.90;;;;;;5058935;28;20049;-60
2022/05/02 05:49:02;;;;;;;9.63;8.13;;;6.30;99.90;;;;;;5059554;28;20059;-60
2022/05/02 05:51:37;;;;;;;13.45;9.38;;;6.40;99.90;;;;;;5055010;28;20079;-60
2022/05/02 05:54:21;;;;;;;11.63;9.38;;;6.50;99.90;;;;;;5056768;28;20091;-60
2022/05/02 05:57:19;;;;;;;12.45;9.15;;;6.60;99.90;;;;;;5057843;28;20036;-60
2022/05/02 06:00:02;;;;;;;12.13;10.32;;;6.70;99.90;;;;;;5054870;28;20044;-60
2022/05/02 06:02:54;;;;;;;11.60;9.55;;;6.80;99.90;;;;;;5054145;28;20144;-60
2022/05/02 06:05:20;;;;;;;10.27;8.80;;;6.90;99.90;;;;;;5048754;28;20051;-60
2022/05/02 06:07:47;;;;;;;10.23;8.10;;;7.00;99.90;;;;;;5058317;28;20406;-61
2022/05/02 06:10:15;;;;;;;9.45;7.88;;;7.10;99.90;;;;;;5057653;28;20239;-60
2022/05/02 06:12:42;;;;;;;10.63;8.45;;;7.20;99.90;;;;;;5055653;28;20056;-61
2022/05/02 06:20:43;;;;;;;13.93;9.80;;;7.40;99.90;;;;;;5056530;28;20044;-61
2022/05/02 06:23:12;;;;;;;12.55;9.50;;;7.50;99.90;;;;;;5054972;28;20050;-58
2022/05/02 06:25:38;;;;;;;11.45;8.98;;;7.60;99.90;;;;;;5056012;28;20498;-60
2022/05/02 06:28:05;;;;;;;13.23;8.93;;;7.60;99.90;;;;;;5054813;28;20303;-61
2022/05/02 06:30:34;;;;;;;15.45;8.10;;;7.70;99.90;;;;;;5054906;28;20132;-61
2022/05/02 06:33:04;;;;;;;10.20;7.65;;;7.80;99.90;;;;;;5052521;28;20132;-61
2022/05/02 06:35:40;;;;;;;10.55;7.50;;;7.90;99.90;;;;;;5057102;28;20797;-59
2022/05/02 06:38:16;;;;;;;8.85;7.93;;;7.90;99.90;;;;;;5061609;28;20439;-61
2022/05/02 06:40:54;;;;;;;9.75;7.22;;;8.10;99.90;;;;;;5058757;28;20090;-59
2022/05/02 06:43:33;;;;;;;9.98;7.82;;;8.10;99.90;;;;;;5059377;28;20048;-60
2022/05/02 06:46:14;;;;;;;10.75;8.43;;;8.20;99.90;;;;;;5057792;28;20051;-61
2022/05/02 06:48:48;;;;;;;15.73;10.07;;;8.30;99.90;;;;;;5065592;28;20067;-60
2022/05/02 06:51:20;;;;;;;12.40;8.30;;;8.40;99.90;;;;;;5064587;28;20424;-58
2022/05/02 06:54:08;;;;;;;11.23;8.07;;;8.50;99.90;;;;;;5061928;28;20131;-60
2022/05/02 06:56:44;;;;;;;12.88;9.10;;;8.60;99.90;;;;;;5062126;28;20109;-60
2022/05/02 06:59:38;;;;;;;8.93;8.02;;;8.70;99.90;;;;;;5066868;28;20045;-60
2022/05/02 07:02:12;;;;;;;10.10;8.95;;;8.70;99.90;;;;;;5057693;28;20506;-60
2022/05/02 07:04:51;;;;;;;12.10;8.30;;;9.50;99.90;;;;;;5063826;28;20032;-60
2022/05/02 07:07:51;;;;;;;12.82;8.98;;;9.00;99.90;;;;;;5058549;28;20120;-59
2022/05/02 07:10:22;;;;;;;17.35;11.52;;;9.20;99.90;;;;;;5060567;28;20066;-60
2022/05/02 07:13:03;;;;;;;14.45;11.57;;;9.20;99.90;;;;;;5065874;28;20204;-60
2022/05/02 07:15:55;;;;;;;12.98;10.60;;;9.40;99.90;;;;;;5056803;28;20052;-61
2022/05/02 07:18:33;;;;;;;16.73;11.23;;;9.50;99.90;;;;;;5048544;28;20601;-60
2022/05/02 07:21:22;;;;;;;13.45;11.45;;;9.60;99.90;;;;;;5059819;28;20040;-60
2022/05/02 07:24:05;;;;;;;14.02;10.60;;;9.70;99.90;;;;;;5057216;28;20164;-60
2022/05/02 07:26:35;;;;;;;15.13;12.77;;;9.90;99.90;;;;;;5062364;28;20036;-60
2022/05/02 07:29:04;;;;;;;13.93;10.77;;;10.00;99.90;;;;;;5054081;28;20057;-60
2022/05/02 07:31:31;;;;;;;16.65;11.82;;;10.10;99.90;;;;;;5064807;28;20573;-61
2022/05/02 07:33:58;;;;;;;15.57;11.73;;;10.20;99.90;;;;;;5054521;28;20045;-66
2022/05/02 07:36:28;;;;;;;15.45;11.75;;;10.30;99.90;;;;;;5054314;28;20044;-61
2022/05/02 07:39:06;;;;;;;12.75;10.25;;;10.40;99.90;;;;;;5068038;28;20094;-64
2022/05/02 07:41:32;;;;;;;14.63;10.43;;;10.50;99.90;;;;;;5065615;28;20049;-63
2022/05/02 07:43:59;;;;;;;10.15;9.00;;;10.60;99.90;;;;;;5066293;28;20039;-64
2022/05/02 07:46:37;;;;;;;11.85;8.10;;;10.70;99.90;;;;;;5060494;28;20113;-63
2022/05/02 07:49:04;;;;;;;9.13;7.65;;;10.80;99.90;;;;;;5050271;28;20049;-63
2022/05/02 07:51:31;;;;;;;12.20;7.35;;;10.90;99.90;;;;;;5054435;28;20395;-63
2022/05/02 07:53:58;;;;;;;9.57;5.30;;;11.00;99.90;;;;;;5064533;28;20040;-64
2022/05/02 07:56:26;;;;;;;5.43;3.60;;;11.10;99.90;;;;;;5059147;28;20135;-63
2022/05/02 07:58:54;;;;;;;6.22;4.75;;;11.20;99.90;;;;;;5059506;28;20494;-64
2022/05/02 08:01:24;;;;;;;5.57;5.00;;;11.30;99.90;;;;;;5060300;28;20044;-64
2022/05/02 08:03:51;;;;;;;7.20;5.00;;;11.40;99.90;;;;;;5066655;28;20044;-63
2022/05/02 08:06:29;;;;;;;8.50;5.50;;;11.50;99.90;;;;;;5055984;28;20052;-64
2022/05/02 08:09:03;;;;;;;6.00;4.93;;;11.50;99.90;;;;;;5066688;28;20094;-63
2022/05/02 08:11:47;;;;;;;6.13;4.95;;;11.60;99.90;;;;;;5055652;28;20151;-63
2022/05/02 08:14:16;;;;;;;7.38;4.55;;;11.70;99.90;;;;;;5054606;28;20045;-63
2022/05/02 08:16:59;;;;;;;6.47;4.80;;;11.70;99.90;;;;;;5057278;28;20044;-63
2022/05/02 08:19:53;;;;;;;6.78;4.68;;;11.80;99.90;;;;;;5062324;28;20599;-63
2022/05/02 08:28:56;;;;;;;9.93;6.13;;;12.00;99.90;;;;;;5059821;28;20543;-63
2022/05/02 08:31:51;;;;;;;6.32;5.05;;;12.10;99.90;;;;;;5056219;28;20045;-64
2022/05/02 08:34:28;;;;;;;9.13;5.38;;;12.20;99.90;;;;;;5057946;28;20414;-63
2022/05/02 08:37:03;;;;;;;5.88;5.30;;;12.20;99.90;;;;;;5066810;28;20036;-64
2022/05/02 08:39:40;;;;;;;6.75;5.32;;;12.40;99.90;;;;;;5065357;28;20045;-63
2022/05/02 08:42:22;;;;;;;7.03;5.57;;;12.40;99.90;;;;;;5066345;28;20136;-64
2022/05/02 08:44:59;;;;;;;8.65;5.40;;;12.40;99.90;;;;;;5066256;28;20068;-63
2022/05/02 08:47:34;;;;;;;5.90;5.40;;;12.50;99.90;;;;;;5054817;28;20054;-64
2022/05/02 08:50:37;;;;;;;9.13;4.65;;;12.60;99.90;;;;;;5061605;28;20053;-64
2022/05/02 08:53:37;;;;;;;5.88;5.25;;;12.60;99.90;;;;;;5045596;28;20057;-64
2022/05/02 08:56:18;;;;;;;6.07;5.43;;;12.70;99.90;;;;;;5045793;28;20116;-64
2022/05/02 08:58:59;;;;;;;11.57;5.32;;;12.90;99.90;;;;;;5045746;28;20575;-63
2022/05/02 09:01:37;;;;;;;9.43;5.40;;;13.00;99.90;;;;;;5045682;28;20045;-63
2022/05/02 09:04:14;;;;;;;7.35;5.65;;;13.00;99.90;;;;;;5046145;28;20115;-64
2022/05/02 09:07:04;;;;;;;7.35;6.15;;;13.00;99.90;;;;;;5058107;28;20033;-64
2022/05/02 09:10:01;;;;;;;7.68;4.95;;;13.10;99.90;;;;;;5059232;28;20147;-64
2022/05/02 09:13:00;;;;;;;6.85;5.45;;;13.10;99.90;;;;;;5054573;28;20057;-64
2022/05/02 09:15:54;;;;;;;7.88;5.60;;;13.20;99.90;;;;;;5059069;28;20063;-65
2022/05/02 09:18:39;;;;;;;6.18;5.45;;;13.30;99.90;;;;;;5056713;28;20047;-64
2022/05/02 09:21:17;;;;;;;8.40;5.68;;;13.30;99.90;;;;;;5058019;28;20044;-64
2022/05/02 09:24:01;;;;;;;5.95;4.88;;;13.40;99.90;;;;;;5053618;28;20119;-64
2022/05/02 09:27:10;;;;;;;9.10;5.65;;;13.40;99.90;;;;;;5062919;28;20279;-64
2022/05/02 09:30:04;;;;;;;5.68;4.90;;;13.60;99.90;;;;;;5050262;28;20135;-64
2022/05/02 09:32:33;;;;;;;7.35;4.82;;;13.70;99.90;;;;;;5057970;28;20191;-64
2022/05/02 09:35:04;;;;;;;7.60;5.68;;;13.70;99.90;;;;;;5056729;28;20033;-66
2022/05/02 09:37:40;;;;;;;7.70;5.80;;;13.80;99.90;;;;;;5049634;28;20092;-64
2022/05/02 09:40:08;;;;;;;8.15;5.80;;;13.80;99.90;;;;;;5054069;28;20053;-63
2022/05/02 09:43:05;;;;;;;9.07;5.80;;;13.90;99.90;;;;;;5058452;28;20398;-63
2022/05/02 09:51:58;;;;;;;6.47;4.97;;;14.20;99.90;;;;;;5065095;28;20048;-63
2022/05/02 09:57:21;;;;;;;5.70;4.82;;;14.10;99.90;;;;;;5064304;28;20076;-64
2022/05/02 10:01:06;;;;;;;5.70;4.55;;;14.10;99.90;;;;;;5065344;28;20052;-64
2022/05/02 10:02:46;;;;;;;5.97;5.38;;;14.00;99.90;;;;;;5064855;28;20131;-63
2022/05/02 10:05:21;;;;;;;6.60;4.55;;;12.40;99.90;;;;;;5063794;28;20037;-63
2022/05/02 10:08:01;;;;;;;5.97;5.15;;;13.50;99.90;;;;;;5065107;28;20036;-64
2022/05/02 10:10:56;;;;;;;8.93;4.55;;;13.40;99.90;;;;;;5069000;28;20086;-65
2022/05/02 10:13:50;;;;;;;7.53;5.97;;;13.50;99.90;;;;;;5068370;28;20051;-63
2022/05/02 10:16:31;;;;;;;5.35;4.40;;;13.70;99.90;;;;;;5068847;28;20075;-64
2022/05/02 10:19:19;;;;;;;5.13;4.35;;;13.90;99.90;;;;;;5068830;28;20109;-64
2022/05/02 10:22:29;;;;;;;6.85;4.53;;;13.90;99.90;;;;;;5069012;28;20059;-63
2022/05/02 10:25:02;;;;;;;6.22;4.30;;;13.80;99.90;;;;;;5068624;28;20132;-63
2022/05/02 10:27:38;;;;;;;5.13;4.40;;;13.50;99.90;;;;;;5065093;28;20057;-65
2022/05/02 10:30:12;;;;;;;5.80;4.43;;;13.40;99.90;;;;;;5051321;28;20119;-64
2022/05/02 10:32:52;;;;;;;6.88;5.03;;;13.50;99.90;;;;;;5048330;28;20521;-63
2022/05/02 10:35:20;;;;;;;8.60;5.10;;;13.70;99.90;;;;;;5058581;28;20071;-64
2022/05/02 10:37:53;;;;;;;4.30;3.63;;;14.00;99.90;;;;;;5061151;28;20049;-64
2022/05/02 10:40:28;;;;;;;7.53;4.10;;;14.40;99.90;;;;;;5067800;28;20409;-64
2022/05/02 10:42:57;;;;;;;6.72;3.97;;;14.60;99.90;;;;;;5059988;28;20190;-63
2022/05/02 10:45:26;;;;;;;4.10;3.40;;;14.70;99.90;;;;;;5064397;28;20047;-64
2022/05/02 10:47:56;;;;;;;4.47;4.05;;;14.80;99.90;;;;;;5064375;28;20036;-63
2022/05/02 10:50:31;;;;;;;5.13;4.18;;;14.70;99.90;;;;;;5060006;28;20051;-63
2022/05/02 10:53:34;;;;;;;4.07;3.10;;;14.50;99.90;;;;;;5065165;28;20037;-63
2022/05/02 10:56:16;;;;;;;;;;;14.30;99.90;;;;;;5072380;28;20781;-63
2022/05/02 10:58:44;;;;;;;5.63;3.60;;;14.20;99.90;;;;;;5075275;28;20383;-64
2022/05/02 11:01:40;;;;;;;4.88;3.55;;;14.00;99.90;;;;;;5056815;28;20052;-64
2022/05/02 11:04:28;;;;;;;4.88;3.33;;;13.90;99.90;;;;;;5048361;28;20049;-63
2022/05/02 11:07:21;;;;;;;5.82;3.78;;;14.00;99.90;;;;;;5050537;28;20064;-63
2022/05/02 11:10:01;;;;;;;10.20;5.28;;;14.30;99.90;;;;;;5048587;28;20080;-63
2022/05/02 11:12:34;;;;;;;3.63;3.22;;;14.50;99.80;;;;;;5048642;28;20537;-63
2022/05/02 11:15:07;;;;;;;6.80;4.30;;;14.70;99.90;;;;;;5047340;28;20290;-64
2022/05/02 11:17:48;;;;;;;4.13;3.72;;;15.00;99.90;;;;;;5052484;28;20053;-63
2022/05/02 11:20:43;;;;;;;4.22;3.47;;;15.20;99.60;;;;;;5053868;28;20355;-63
2022/05/02 11:23:33;;;;;;;4.10;3.67;;;15.40;98.60;;;;;;5047152;28;20045;-63
2022/05/02 11:26:32;;;;;;;6.82;4.00;;;15.50;94.10;;;;;;5063460;28;20049;-66
2022/05/02 11:29:30;;;;;;;4.82;3.55;;;15.40;94.40;;;;;;5061215;28;20044;-64
2022/05/02 11:32:13;;;;;;;6.07;3.92;;;15.20;92.40;;;;;;5049220;28;20056;-64
2022/05/02 11:34:49;;;;;;;5.03;4.00;;;15.00;93.50;;;;;;5056632;28;20040;-63
2022/05/02 11:37:54;;;;;;;4.20;3.80;;;15.00;98.70;;;;;;5054509;28;20097;-63
2022/05/02 11:40:27;;;;;;;7.32;4.30;;;15.30;98.60;;;;;;5058248;28;20060;-63
2022/05/02 11:42:54;;;;;;;7.55;4.00;;;15.50;99.40;;;;;;5060845;28;20078;-63
2022/05/02 11:45:28;;;;;;;6.00;3.90;;;15.80;99.00;;;;;;5058473;28;20452;-62
2022/05/02 11:48:35;;;;;;;7.35;3.65;;;15.80;99.00;;;;;;5062851;28;20056;-63
2022/05/02 11:51:05;;;;;;;3.65;3.35;;;15.90;99.90;;;;;;5050770;28;20647;-63
2022/05/02 11:53:35;;;;;;;3.92;3.47;;;16.00;99.60;;;;;;5065352;28;20091;-63
2022/05/02 11:56:05;;;;;;;4.93;4.38;;;15.80;99.90;;;;;;5070183;28;20161;-63
2022/05/02 11:58:45;;;;;;;6.32;4.28;;;15.60;99.90;;;;;;5053985;28;20049;-63
2022/05/02 12:01:12;;;;;;;5.88;3.95;;;15.20;99.90;;;;;;5055527;28;20119;-63
2022/05/02 12:04:03;;;;;;;5.50;4.30;;;15.20;99.90;;;;;;5049040;28;20063;-62
2022/05/02 12:06:40;;;;;;;4.60;3.35;;;15.30;99.90;;;;;;5053118;28;20052;-64
2022/05/02 12:09:17;;;;;;;4.75;3.88;;;15.50;99.90;;;;;;5051474;28;20044;-63
2022/05/02 12:11:58;;;;;;;4.20;3.40;;;15.70;99.90;;;;;;5046241;28;20056;-63
2022/05/02 12:14:25;;;;;;;6.53;3.72;;;15.80;99.90;;;;;;5047315;28;20837;-63
2022/05/02 12:17:12;;;;;;;10.30;3.80;;;16.00;99.90;;;;;;5049141;28;20048;-63
2022/05/02 12:19:40;;;;;;;5.22;4.63;;;16.10;99.90;;;;;;5051902;28;20036;-64
2022/05/02 12:22:15;;;;;;;6.70;4.97;;;16.00;98.70;;;;;;5062476;28;20029;-63
2022/05/02 12:24:45;;;;;;;4.93;3.85;;;15.80;98.80;;;;;;5064534;28;20490;-64
2022/05/02 12:27:14;;;;;;;5.65;3.90;;;15.70;99.10;;;;;;5054568;28;20316;-65
2022/05/02 12:29:42;;;;;;;6.30;4.35;;;15.50;99.80;;;;;;5062587;28;20391;-62
2022/05/02 12:32:08;;;;;;;6.80;4.47;;;15.40;99.90;;;;;;5061592;28;20045;-62
2022/05/02 12:34:39;;;;;;;10.32;4.43;;;15.30;99.90;;;;;;5062505;28;20132;-63
2022/05/02 12:37:33;;;;;;;5.50;4.30;;;15.30;99.90;;;;;;5064872;28;20064;-63
2022/05/02 12:40:06;;;;;;;5.70;4.95;;;15.50;99.90;;;;;;5053045;28;20057;-63
2022/05/02 12:42:36;;;;;;;5.18;4.57;;;15.60;99.90;;;;;;5057124;28;20051;-62
2022/05/02 12:45:06;;;;;;;7.25;4.18;;;15.80;99.90;;;;;;5056130;28;20036;-63
2022/05/02 12:47:59;;;;;;;4.88;4.47;;;15.80;99.90;;;;;;5060047;28;20060;-63
2022/05/02 12:50:28;;;;;;;4.30;3.90;;;15.80;99.90;;;;;;5060048;28;20048;-63
2022/05/02 12:52:56;;;;;;;5.38;4.53;;;15.90;99.90;;;;;;5055881;28;20095;-63
2022/05/02 12:55:23;;;;;;;5.35;4.60;;;15.90;99.20;;;;;;5053434;28;20483;-63
2022/05/02 13:01:01;;;;;;;5.13;4.00;;;16.10;98.50;;;;;;5045499;28;20049;-64
2022/05/02 13:03:30;;;;;;;4.20;3.80;;;16.30;99.90;;;;;;5050201;28;20182;-63
2022/05/02 13:06:10;;;;;;;4.97;4.10;;;16.50;99.90;;;;;;5057486;28;20112;-63
2022/05/02 13:08:41;;;;;;;3.92;3.55;;;16.50;99.90;;;;;;5058031;28;20051;-63
2022/05/02 13:11:09;;;;;;;4.20;3.70;;;16.60;99.90;;;;;;5060830;28;20083;-63
2022/05/02 13:13:47;;;;;;;5.35;3.72;;;15.90;98.90;;;;;;5051002;28;20295;-63
2022/05/02 13:16:35;;;;;;;3.67;3.38;;;17.30;99.50;;;;;;5061193;28;20490;-63
2022/05/02 13:19:04;;;;;;;4.20;3.80;;;16.50;99.60;;;;;;5049126;28;20168;-63
2022/05/02 13:21:30;;;;;;;4.88;4.20;;;16.60;97.90;;;;;;5061102;28;20089;-63
2022/05/02 13:24:11;;;;;;;5.32;4.05;;;16.70;98.40;;;;;;5065948;28;20044;-63
2022/05/02 13:27:02;;;;;;;3.95;3.55;;;16.90;98.00;;;;;;5059464;28;20099;-63
2022/05/02 13:29:46;;;;;;;4.28;3.78;;;17.00;96.60;;;;;;5053766;28;20045;-63
2022/05/02 13:32:21;;;;;;;6.00;4.05;;;17.00;96.00;;;;;;5060144;28;20437;-63
2022/05/02 13:35:00;;;;;;;5.57;4.13;;;16.90;94.10;;;;;;5051042;28;20056;-63
2022/05/02 13:37:38;;;;;;;4.00;3.60;;;16.70;95.50;;;;;;5049127;28;20479;-63
2022/05/02 13:40:09;;;;;;;7.25;4.13;;;16.60;96.60;;;;;;5049203;28;20051;-63
2022/05/02 13:43:08;;;;;;;5.15;4.15;;;16.70;95.60;;;;;;5045608;28;20080;-64
2022/05/02 13:45:46;;;;;;;5.65;3.63;;;16.80;92.80;;;;;;5059726;28;20055;-64
2022/05/02 13:48:34;;;;;;;5.72;3.78;;;16.90;94.60;;;;;;5067630;28;20052;-63
2022/05/02 13:51:19;;;;;;;7.10;4.47;;;17.00;93.90;;;;;;5069317;28;20094;-64
2022/05/02 13:53:57;;;;;;;4.68;4.00;;;17.10;93.90;;;;;;5056026;28;20522;-63